Time;durP1;ratioP1;P1;durP2;ratioP2;P2;SDS_P1;SDS_P2;PMS_P1;PMS_P2;Temp;Humidity;BMP_temperature;BMP_pressure;BME280_temperature;BME280_humidity;BME280_pressure;Samples;Min_cycle;Max_cycle;Signal;HPM_P1;HPM_P2
2022/04/16 00:01:53;;;;;;;21.60;17.60;;;;;;;6.40;100.00;102959.53;5350673;27;20031;-77
2022/04/16 00:04:25;;;;;;;17.85;14.60;;;;;;;6.34;100.00;102953.63;5351039;27;20517;-77
2022/04/16 00:06:56;;;;;;;22.45;17.85;;;;;;;6.31;100.00;102956.41;5352138;27;20107;-77
2022/04/16 00:09:28;;;;;;;18.52;16.58;;;;;;;6.29;100.00;102959.09;5351138;27;20027;-77
2022/04/16 00:11:59;;;;;;;19.60;16.95;;;;;;;6.29;100.00;102955.59;5352506;27;20035;-77
2022/04/16 00:14:31;;;;;;;19.13;17.05;;;;;;;6.30;100.00;102952.88;5352846;27;20385;-77
2022/04/16 00:17:02;;;;;;;17.15;14.73;;;;;;;6.34;100.00;102954.47;5347138;27;20042;-77
2022/04/16 00:19:34;;;;;;;19.40;16.65;;;;;;;6.25;100.00;102961.03;5349694;27;20031;-77
2022/04/16 00:22:12;;;;;;;18.42;14.82;;;;;;;6.29;100.00;102953.81;5369573;27;20107;-77
2022/04/16 00:24:43;;;;;;;19.15;15.40;;;;;;;6.30;100.00;102950.25;5349952;27;20026;-77
2022/04/16 00:27:14;;;;;;;18.88;16.73;;;;;;;6.21;100.00;102947.97;5353318;27;20027;-77
2022/04/16 00:29:46;;;;;;;18.13;16.00;;;;;;;6.21;100.00;102956.78;5351204;27;20433;-77
2022/04/16 00:32:19;;;;;;;20.85;16.33;;;;;;;6.25;100.00;102953.06;5355027;27;20460;-77
2022/04/16 00:34:51;;;;;;;22.38;17.45;;;;;;;6.15;100.00;102958.81;5353576;27;20338;-78
2022/04/16 00:37:22;;;;;;;20.55;18.33;;;;;;;6.11;100.00;102966.03;5361757;27;20039;-77
2022/04/16 00:39:53;;;;;;;18.95;16.20;;;;;;;6.13;100.00;102963.31;5358413;27;20095;-77
2022/04/16 00:42:25;;;;;;;17.75;14.43;;;;;;;6.14;100.00;102957.09;5358593;27;20055;-77
2022/04/16 00:44:56;;;;;;;19.98;17.88;;;;;;;6.01;100.00;102962.91;5359511;27;20031;-77
2022/04/16 00:47:27;;;;;;;17.88;16.00;;;;;;;6.14;100.00;102967.69;5362364;27;20036;-78
2022/04/16 00:49:59;;;;;;;22.23;18.73;;;;;;;6.09;100.00;102967.03;5358488;27;20390;-77
2022/04/16 00:52:30;;;;;;;24.35;18.73;;;;;;;6.08;100.00;102963.50;5353093;27;20039;-77
2022/04/16 00:55:04;;;;;;;26.77;19.35;;;;;;;6.00;100.00;102968.25;5352030;27;20419;-77
2022/04/16 00:57:41;;;;;;;21.95;18.83;;;;;;;5.98;100.00;102968.31;5355628;27;20088;-77
2022/04/16 01:00:13;;;;;;;20.80;17.15;;;;;;;6.05;100.00;102960.97;5353316;27;20020;-77
2022/04/16 01:02:46;;;;;;;24.33;19.45;;;;;;;6.02;100.00;102964.59;5351204;27;20084;-77
2022/04/16 01:05:19;;;;;;;20.65;18.05;;;;;;;6.08;100.00;102962.63;5356665;27;20102;-77
2022/04/16 01:08:02;;;;;;;24.52;20.50;;;;;;;5.98;100.00;102956.84;5353390;27;20055;-77
2022/04/16 01:10:34;;;;;;;24.80;20.60;;;;;;;5.92;100.00;102965.84;5350960;27;20110;-78
2022/04/16 01:13:06;;;;;;;24.77;19.92;;;;;;;5.92;100.00;102965.84;5351676;27;20027;-77
2022/04/16 01:15:39;;;;;;;24.10;20.48;;;;;;;5.96;100.00;102966.63;5349496;27;20047;-77
2022/04/16 01:18:12;;;;;;;23.55;21.02;;;;;;;6.01;100.00;102965.53;5348000;27;20019;-78
2022/04/16 01:20:44;;;;;;;24.02;21.42;;;;;;;5.90;100.00;102969.50;5348720;27;20469;-77
2022/04/16 01:23:15;;;;;;;27.67;22.13;;;;;;;5.93;100.00;102975.53;5350796;27;20027;-76
2022/04/16 01:25:50;;;;;;;25.42;21.50;;;;;;;5.98;100.00;102975.41;5355822;27;20019;-76
2022/04/16 01:28:22;;;;;;;26.48;21.45;;;;;;;5.86;100.00;102974.06;5355247;27;20023;-76
2022/04/16 01:30:53;;;;;;;27.88;21.90;;;;;;;5.82;100.00;102972.44;5351494;27;20050;-76
2022/04/16 01:33:25;;;;;;;26.05;22.70;;;;;;;5.81;100.00;102973.38;5352371;27;20037;-77
2022/04/16 01:35:58;;;;;;;27.95;22.40;;;;;;;5.84;100.00;102976.75;5352721;27;20122;-76
2022/04/16 01:38:29;;;;;;;26.00;22.58;;;;;;;5.76;100.00;102980.63;5348264;27;20032;-76
2022/04/16 01:41:00;;;;;;;24.50;20.40;;;;;;;5.77;100.00;102982.38;5348658;27;20031;-76
2022/04/16 01:43:32;;;;;;;29.33;23.58;;;;;;;5.76;100.00;102984.13;5353239;27;20192;-76
2022/04/16 01:46:04;;;;;;;27.75;22.70;;;;;;;5.68;100.00;102991.53;5349882;27;20035;-77
2022/04/16 01:48:35;;;;;;;26.48;22.63;;;;;;;5.63;100.00;102983.75;5359545;27;20019;-76
2022/04/16 01:51:07;;;;;;;25.73;20.63;;;;;;;5.78;100.00;102990.22;5354540;27;20031;-76
2022/04/16 01:53:38;;;;;;;30.85;23.60;;;;;;;5.68;100.00;102996.81;5352785;27;20380;-77
2022/04/16 01:56:11;;;;;;;29.90;23.42;;;;;;;5.62;100.00;102991.72;5355817;27;20058;-77
2022/04/16 01:58:44;;;;;;;27.98;23.02;;;;;;;5.58;100.00;102990.13;5353546;27;20452;-77
2022/04/16 02:01:15;;;;;;;28.17;23.63;;;;;;;5.54;100.00;102983.19;5355269;27;20039;-77
2022/04/16 02:03:46;;;;;;;26.90;21.83;;;;;;;5.57;100.00;102988.41;5350878;27;20016;-76
2022/04/16 02:06:18;;;;;;;32.28;24.30;;;;;;;5.52;100.00;102991.19;5354244;27;20035;-77
2022/04/16 02:08:51;;;;;;;27.60;21.05;;;;;;;5.51;100.00;102980.69;5351617;27;20031;-77
2022/04/16 02:11:22;;;;;;;28.33;23.15;;;;;;;5.53;100.00;102987.66;5351748;27;20019;-77
2022/04/16 02:13:54;;;;;;;32.05;25.60;;;;;;;5.52;100.00;102996.50;5348234;27;20869;-77
2022/04/16 02:16:25;;;;;;;30.48;24.52;;;;;;;5.47;100.00;102986.09;5353014;27;20396;-77
2022/04/16 02:18:56;;;;;;;31.83;23.25;;;;;;;5.49;100.00;102996.63;5354456;27;20023;-77
2022/04/16 02:21:30;;;;;;;26.50;21.27;;;;;;;5.54;100.00;102997.31;5353765;27;41687;-76
2022/04/16 02:24:02;;;;;;;29.02;21.65;;;;;;;5.52;100.00;103004.44;5351008;27;20092;-76
2022/04/16 02:26:33;;;;;;;30.90;23.52;;;;;;;5.48;100.00;103002.84;5349890;27;20035;-76
2022/04/16 02:29:05;;;;;;;25.85;20.63;;;;;;;5.47;100.00;102998.47;5351409;27;20042;-77
2022/04/16 02:31:37;;;;;;;30.05;25.08;;;;;;;5.46;100.00;103004.69;5352806;27;20027;-77
2022/04/16 02:34:11;;;;;;;32.22;25.33;;;;;;;5.38;100.00;103002.31;5350555;27;20431;-76
2022/04/16 02:36:44;;;;;;;29.10;24.90;;;;;;;5.39;100.00;103001.38;5355088;27;20038;-76
2022/04/16 02:39:16;;;;;;;34.08;26.33;;;;;;;5.35;100.00;103004.19;5354952;27;20031;-77
2022/04/16 02:41:50;;;;;;;30.73;25.30;;;;;;;5.34;100.00;103005.13;5358308;27;20030;-77
2022/04/16 02:47:12;;;;;;;33.33;26.30;;;;;;;5.35;100.00;102998.91;5353448;27;20431;-76
2022/04/16 02:49:43;;;;;;;33.28;27.23;;;;;;;5.27;100.00;102999.19;5351557;27;20030;-76
2022/04/16 02:52:15;;;;;;;32.58;24.85;;;;;;;5.22;100.00;102998.47;5352375;27;20751;-76
2022/04/16 02:54:46;;;;;;;31.00;25.45;;;;;;;5.28;100.00;103009.72;5352673;27;20051;-76
2022/04/16 02:57:17;;;;;;;32.35;26.73;;;;;;;5.18;100.00;103008.31;5352693;27;20159;-76
2022/04/16 02:59:48;;;;;;;33.90;24.50;;;;;;;5.17;100.00;103011.91;5354653;27;20079;-76
2022/04/16 03:02:20;;;;;;;29.35;25.20;;;;;;;5.08;100.00;103015.72;5351303;27;20031;-76
2022/04/16 03:04:51;;;;;;;34.72;27.60;;;;;;;5.11;100.00;103017.38;5355563;27;20061;-76
2022/04/16 03:07:23;;;;;;;27.30;23.75;;;;;;;5.19;100.00;103020.63;5348531;27;20076;-76
2022/04/16 03:09:54;;;;;;;30.42;25.42;;;;;;;5.16;100.00;103026.03;5350746;27;20034;-76
2022/04/16 03:12:25;;;;;;;27.38;21.77;;;;;;;5.19;100.00;103020.63;5351879;27;20137;-76
2022/04/16 03:17:46;;;;;;;28.58;21.30;;;;;;;5.15;100.00;103029.59;5348289;27;20411;-76
2022/04/16 03:20:18;;;;;;;36.55;28.98;;;;;;;4.95;100.00;103024.13;5346185;27;20034;-76
2022/04/16 03:22:49;;;;;;;31.67;26.67;;;;;;;4.99;100.00;103023.09;5349997;27;20129;-77
2022/04/16 03:25:21;;;;;;;34.80;28.55;;;;;;;4.95;100.00;103027.63;5353346;27;20034;-77
2022/04/16 03:27:52;;;;;;;33.65;27.38;;;;;;;4.87;100.00;103029.66;5348409;27;20443;-77
2022/04/16 03:30:24;;;;;;;29.75;25.13;;;;;;;4.86;100.00;103030.59;5350190;27;20346;-77
2022/04/16 03:32:55;;;;;;;43.17;30.00;;;;;;;4.79;100.00;103029.94;5349026;27;20020;-77
2022/04/16 03:35:27;;;;;;;36.38;30.05;;;;;;;4.79;100.00;103029.09;5353769;27;20019;-77
2022/04/16 03:37:58;;;;;;;35.85;27.15;;;;;;;4.88;100.00;103031.41;5350362;27;20061;-77
2022/04/16 03:40:29;;;;;;;35.90;28.00;;;;;;;4.80;100.00;103033.44;5352685;27;20058;-77
2022/04/16 03:43:02;;;;;;;38.05;28.58;;;;;;;4.69;100.00;103012.66;5350859;27;20022;-77
2022/04/16 03:45:35;;;;;;;38.33;30.55;;;;;;;4.71;100.00;103024.88;5347261;27;20027;-77
2022/04/16 03:48:07;;;;;;;40.00;30.50;;;;;;;4.69;100.00;103031.16;5353711;27;20458;-77
2022/04/16 03:50:40;;;;;;;36.97;26.15;;;;;;;4.82;100.00;103028.97;5350149;27;20130;-77
2022/04/16 03:53:11;;;;;;;40.45;30.13;;;;;;;4.64;100.00;103019.88;5352422;27;20058;-77
2022/04/16 04:01:23;;;;;;;36.33;28.20;;;;;;;4.69;100.00;103028.50;5353943;27;20020;-77
2022/04/16 04:03:54;;;;;;;38.80;28.92;;;;;;;4.50;100.00;103029.09;5350714;27;20033;-77
2022/04/16 04:06:26;;;;;;;45.97;34.00;;;;;;;4.46;100.00;103024.84;5350783;27;20043;-76
2022/04/16 04:08:57;;;;;;;41.28;31.48;;;;;;;4.44;100.00;103034.59;5354328;27;20027;-76
2022/04/16 04:11:28;;;;;;;43.33;31.23;;;;;;;4.43;100.00;103035.50;5352014;27;20491;-77
2022/04/16 04:13:59;;;;;;;44.97;33.25;;;;;;;4.43;100.00;103040.78;5354250;27;20028;-77
2022/04/16 04:16:31;;;;;;;41.67;30.40;;;;;;;4.53;100.00;103044.00;5357089;27;20072;-77
2022/04/16 04:19:02;;;;;;;45.00;31.10;;;;;;;4.41;100.00;103047.91;5355374;27;20016;-77
2022/04/16 04:21:33;;;;;;;34.72;24.65;;;;;;;4.65;100.00;103045.41;5351070;27;20393;-77
2022/04/16 04:24:04;;;;;;;48.55;35.58;;;;;;;4.37;100.00;103048.91;5352791;27;20024;-76
2022/04/16 04:26:36;;;;;;;47.22;34.90;;;;;;;4.37;100.00;103051.56;5356485;27;20058;-77
2022/04/16 04:29:07;;;;;;;46.15;34.50;;;;;;;4.31;100.00;103049.97;5350908;27;20030;-77
2022/04/16 04:31:38;;;;;;;46.33;33.88;;;;;;;4.32;100.00;103053.47;5351985;27;20027;-77
2022/04/16 04:34:10;;;;;;;44.38;34.38;;;;;;;4.27;100.00;103060.69;5352763;27;20062;-77
2022/04/16 04:36:41;;;;;;;44.72;35.45;;;;;;;4.27;100.00;103061.53;5351321;27;20084;-77
2022/04/16 04:39:13;;;;;;;47.88;34.85;;;;;;;4.29;100.00;103054.44;5346428;27;20099;-77
2022/04/16 04:41:45;;;;;;;51.25;36.20;;;;;;;4.31;100.00;103063.19;5345403;27;20019;-77
2022/04/16 04:44:16;;;;;;;51.85;35.38;;;;;;;4.25;100.00;103059.88;5344920;27;20024;-77
2022/04/16 04:46:47;;;;;;;50.78;36.08;;;;;;;4.30;100.00;103066.75;5348344;27;20053;-77
2022/04/16 04:49:19;;;;;;;54.22;37.60;;;;;;;4.32;100.00;103074.63;5346115;27;20106;-77
2022/04/16 04:51:50;;;;;;;48.50;35.30;;;;;;;4.29;100.00;103070.28;5345385;27;20024;-77
2022/04/16 04:54:22;;;;;;;51.58;34.42;;;;;;;4.40;100.00;103072.63;5349336;27;20065;-77
2022/04/16 04:56:53;;;;;;;50.47;38.60;;;;;;;4.35;100.00;103080.66;5348230;27;20046;-77
2022/04/16 04:59:24;;;;;;;48.78;34.95;;;;;;;4.41;100.00;103071.69;5347368;27;20111;-78
2022/04/16 05:01:55;;;;;;;57.35;39.15;;;;;;;4.42;100.00;103081.34;5354410;27;20389;-77
2022/04/16 05:04:27;;;;;;;54.65;37.92;;;;;;;4.45;100.00;103083.91;5350818;27;20031;-77
2022/04/16 05:07:01;;;;;;;53.35;38.58;;;;;;;4.51;100.00;103089.00;5349045;27;20111;-77
2022/04/16 05:09:33;;;;;;;62.80;41.42;;;;;;;4.56;100.00;103088.84;5350182;27;20050;-77
2022/04/16 05:12:05;;;;;;;52.67;40.70;;;;;;;4.67;100.00;103091.16;5350560;27;20139;-77
2022/04/16 05:14:36;;;;;;;55.40;39.80;;;;;;;4.75;100.00;103091.75;5351578;27;20031;-77
2022/04/16 05:17:08;;;;;;;53.10;39.35;;;;;;;4.80;100.00;103087.19;5352729;27;20035;-77
2022/04/16 05:19:39;;;;;;;53.15;39.70;;;;;;;4.97;100.00;103099.00;5356921;27;20027;-77
2022/04/16 05:22:10;;;;;;;49.58;37.30;;;;;;;5.06;100.00;103085.47;5358054;27;20024;-77
2022/04/16 05:24:44;;;;;;;54.15;38.53;;;;;;;5.19;100.00;103102.66;5357933;27;20108;-77
2022/04/16 05:27:15;;;;;;;49.95;37.75;;;;;;;5.29;100.00;103097.91;5356028;27;20032;-77
2022/04/16 05:32:45;;;;;;;44.85;35.78;;;;;;;5.63;100.00;103107.31;5354614;27;20027;-77
2022/04/16 05:35:16;;;;;;;45.20;33.97;;;;;;;5.80;100.00;103110.22;5355705;27;20024;-77
2022/04/16 05:37:48;;;;;;;41.15;33.47;;;;;;;5.94;100.00;103115.00;5357888;27;20505;-77
2022/04/16 05:40:19;;;;;;;41.25;32.10;;;;;;;6.04;100.00;103108.47;5355351;27;20027;-77
2022/04/16 05:42:50;;;;;;;36.80;30.80;;;;;;;6.24;100.00;103107.72;5348951;27;20026;-77
2022/04/16 05:45:22;;;;;;;38.50;31.10;;;;;;;6.40;100.00;103104.50;5356534;27;20455;-77
2022/04/16 05:47:53;;;;;;;39.90;29.63;;;;;;;6.66;100.00;103098.13;5353158;27;20093;-78
2022/04/16 05:50:24;;;;;;;32.72;26.60;;;;;;;6.82;100.00;103104.56;5350907;27;20039;-78
2022/04/16 05:52:56;;;;;;;30.45;27.05;;;;;;;6.93;100.00;103104.13;5359082;27;20027;-78
2022/04/16 05:55:27;;;;;;;32.63;27.98;;;;;;;7.17;100.00;103118.16;5342948;27;20463;-78
2022/04/16 05:57:59;;;;;;;32.28;27.48;;;;;;;7.39;100.00;103112.78;5355809;27;20595;-78
2022/04/16 06:00:30;;;;;;;30.70;26.77;;;;;;;7.52;100.00;103117.56;5351594;27;20037;-78
2022/04/16 06:03:04;;;;;;;29.70;26.58;;;;;;;7.76;100.00;103120.94;5348882;27;20027;-78
2022/04/16 06:05:36;;;;;;;32.25;26.25;;;;;;;8.05;100.00;103124.09;5347918;27;20019;-78
2022/04/16 06:08:07;;;;;;;27.80;24.30;;;;;;;8.24;100.00;103124.94;5350729;27;20116;-78
2022/04/16 06:10:38;;;;;;;26.38;23.23;;;;;;;8.36;100.00;103125.31;5367750;27;20027;-78
2022/04/16 06:13:11;;;;;;;26.45;23.48;;;;;;;8.67;100.00;103127.41;5354888;27;20391;-79
2022/04/16 06:15:44;;;;;;;26.38;23.58;;;;;;;8.87;100.00;103115.75;5370076;27;20031;-79
2022/04/16 06:18:15;;;;;;;28.58;24.33;;;;;;;9.09;100.00;103127.06;5354835;27;20106;-79
2022/04/16 06:20:50;;;;;;;26.45;23.75;;;;;;;9.28;100.00;103131.47;5355039;27;20114;-79
2022/04/16 06:23:24;;;;;;;26.35;23.55;;;;;;;9.59;100.00;103132.56;5360142;27;20343;-78
2022/04/16 06:25:55;;;;;;;28.35;24.48;;;;;;;9.82;100.00;103139.34;5366851;27;20039;-79
2022/04/16 06:28:27;;;;;;;26.80;22.55;;;;;;;10.07;100.00;103138.91;5350611;27;20023;-76
2022/04/16 06:30:58;;;;;;;27.40;23.83;;;;;;;10.03;100.00;103138.19;5354600;27;20107;-77
2022/04/16 06:33:29;;;;;;;22.50;20.10;;;;;;;10.36;100.00;103139.13;5351599;27;20110;-78
2022/04/16 06:36:01;;;;;;;25.40;22.83;;;;;;;10.69;100.00;103135.50;5352399;27;20071;-79
2022/04/16 06:38:33;;;;;;;25.20;22.42;;;;;;;11.13;100.00;103132.97;5352437;27;20464;-78
2022/04/16 06:41:04;;;;;;;24.23;21.88;;;;;;;11.37;100.00;103139.59;5355963;27;20114;-75
2022/04/16 06:43:35;;;;;;;25.75;22.95;;;;;;;11.78;100.00;103138.91;5352109;27;20019;-78
2022/04/16 06:46:07;;;;;;;24.17;21.67;;;;;;;12.17;100.00;103138.28;5354161;27;20028;-77
2022/04/16 06:48:38;;;;;;;26.92;22.80;;;;;;;12.49;100.00;103133.53;5348652;27;20016;-78
2022/04/16 06:51:10;;;;;;;25.13;22.35;;;;;;;12.98;100.00;103137.47;5349600;27;20051;-78
2022/04/16 06:53:42;;;;;;;25.45;22.85;;;;;;;13.02;100.00;103143.50;5355563;27;20042;-78
2022/04/16 06:56:13;;;;;;;26.13;22.63;;;;;;;13.47;100.00;103136.03;5357442;27;20040;-78
2022/04/16 06:58:45;;;;;;;23.33;20.83;;;;;;;13.87;100.00;103133.25;5363643;27;20116;-78
2022/04/16 07:01:16;;;;;;;24.88;22.17;;;;;;;14.17;100.00;103135.56;5354898;27;20035;-78
2022/04/16 07:03:47;;;;;;;24.02;21.40;;;;;;;14.58;100.00;103141.59;5357863;27;20927;-78
2022/04/16 07:06:19;;;;;;;23.98;21.48;;;;;;;14.61;100.00;103135.16;5350506;27;20080;-78
2022/04/16 07:08:50;;;;;;;23.60;21.10;;;;;;;14.81;100.00;103137.19;5350084;27;20027;-78
2022/04/16 07:11:21;;;;;;;23.60;21.13;;;;;;;15.26;100.00;103136.53;5349414;27;20039;-78
2022/04/16 07:13:52;;;;;;;23.13;20.67;;;;;;;15.53;100.00;103135.38;5350924;27;20081;-79
2022/04/16 07:16:24;;;;;;;22.73;20.30;;;;;;;15.69;100.00;103135.91;5364548;27;20102;-78
2022/04/16 07:18:55;;;;;;;21.08;18.85;;;;;;;15.74;100.00;103136.38;5364227;27;20028;-78
2022/04/16 07:21:26;;;;;;;22.05;19.85;;;;;;;15.70;100.00;103137.63;5350052;27;20027;-78
2022/04/16 07:23:57;;;;;;;22.35;20.08;;;;;;;15.85;100.00;103140.97;5352901;27;20039;-78
2022/04/16 07:26:29;;;;;;;21.88;19.10;;;;;;;16.31;100.00;103144.50;5351875;27;20655;-78
2022/04/16 07:29:00;;;;;;;21.63;19.33;;;;;;;16.55;100.00;103133.56;5358895;27;20851;-79
2022/04/16 07:31:31;;;;;;;22.38;20.08;;;;;;;17.10;100.00;103137.06;5355037;27;20015;-78
2022/04/16 07:34:03;;;;;;;20.48;18.35;;;;;;;17.32;100.00;103141.50;5356801;27;20020;-78
2022/04/16 07:36:34;;;;;;;22.27;19.90;;;;;;;17.82;100.00;103146.19;5358271;27;20041;-78
2022/04/16 07:39:06;;;;;;;19.95;17.85;;;;;;;18.63;100.00;103150.75;5354875;27;20016;-78
2022/04/16 07:41:38;;;;;;;20.85;18.65;;;;;;;19.07;100.00;103145.84;5351985;27;20038;-78
2022/04/16 07:44:09;;;;;;;19.25;17.33;;;;;;;19.30;97.75;103149.09;5355594;27;20022;-79
2022/04/16 07:46:40;;;;;;;19.45;17.42;;;;;;;19.50;92.43;103144.50;5361678;27;20039;-79
2022/04/16 07:49:12;;;;;;;21.02;18.80;;;;;;;19.80;85.36;103148.03;5352163;27;20070;-79
2022/04/16 07:51:45;;;;;;;19.85;17.83;;;;;;;20.67;82.35;103140.47;5356029;27;20015;-80
2022/04/16 07:54:17;;;;;;;19.92;18.02;;;;;;;20.56;74.12;103139.66;5356140;27;20360;-78
2022/04/16 07:56:48;;;;;;;19.15;17.30;;;;;;;21.23;73.75;103143.84;5358380;27;20099;-78
2022/04/16 07:59:20;;;;;;;19.42;17.42;;;;;;;21.42;62.94;103145.53;5353740;27;20038;-79
2022/04/16 08:01:51;;;;;;;19.83;17.83;;;;;;;21.44;61.20;103143.50;5355079;27;20492;-78
2022/04/16 08:04:22;;;;;;;19.25;17.35;;;;;;;20.94;61.96;103136.84;5349418;27;38906;-79
2022/04/16 08:06:54;;;;;;;18.80;16.90;;;;;;;21.89;55.08;103137.84;5356810;27;20037;-78
2022/04/16 08:09:25;;;;;;;18.00;16.13;;;;;;;22.60;54.69;103145.81;5355526;27;20024;-79
2022/04/16 08:11:57;;;;;;;18.98;16.98;;;;;;;22.09;54.48;103151.22;5350408;27;20110;-78
2022/04/16 08:14:28;;;;;;;17.00;15.27;;;;;;;23.05;50.77;103155.41;5352998;27;20449;-78
2022/04/16 08:17:00;;;;;;;18.17;16.38;;;;;;;22.67;49.33;103146.84;5355292;27;20058;-78
2022/04/16 08:19:31;;;;;;;17.42;15.70;;;;;;;23.41;46.51;103114.22;5347009;27;20086;-78
2022/04/16 08:22:07;;;;;;;17.73;15.77;;;;;;;23.50;45.76;103134.09;5363130;27;20050;-78
2022/04/16 08:24:40;;;;;;;17.70;15.70;;;;;;;23.73;46.13;103150.56;5347419;27;20396;-79
2022/04/16 08:27:12;;;;;;;16.75;15.02;;;;;;;24.86;42.93;103142.03;5346217;27;20059;-79
2022/04/16 08:29:43;;;;;;;18.08;16.38;;;;;;;24.80;41.27;103145.47;5358211;27;20541;-79
2022/04/16 08:32:14;;;;;;;15.90;14.33;;;;;;;25.18;40.81;103148.25;5346081;27;20397;-79
2022/04/16 08:34:46;;;;;;;15.98;14.48;;;;;;;24.77;41.19;103153.19;5345110;27;20323;-79
2022/04/16 08:37:17;;;;;;;16.80;14.38;;;;;;;25.30;39.67;103156.88;5356317;27;20172;-79
2022/04/16 08:39:48;;;;;;;15.85;14.15;;;;;;;25.92;38.22;103154.88;5355028;27;20023;-79
2022/04/16 08:42:20;;;;;;;14.55;13.15;;;;;;;26.36;37.07;103157.56;5348915;27;20481;-80
2022/04/16 08:44:52;;;;;;;16.05;14.43;;;;;;;26.92;35.85;103159.66;5351863;27;20032;-79
2022/04/16 08:47:23;;;;;;;15.82;13.07;;;;;;;26.90;35.46;103169.94;5366631;27;20035;-80
2022/04/16 08:49:55;;;;;;;14.32;12.90;;;;;;;26.82;34.45;103155.56;5358873;27;20077;-79
2022/04/16 08:52:32;;;;;;;14.15;12.65;;;;;;;27.78;35.09;103158.66;5346441;27;20020;-79
2022/04/16 08:55:06;;;;;;;13.48;12.27;;;;;;;27.21;34.28;103154.19;5356921;27;20352;-79
2022/04/16 08:57:39;;;;;;;14.75;13.15;;;;;;;27.41;33.66;103157.97;5350518;27;20035;-79
2022/04/16 09:00:14;;;;;;;13.80;12.50;;;;;;;27.30;32.97;103155.81;5349794;27;20089;-79
2022/04/16 09:02:56;;;;;;;13.40;11.95;;;;;;;28.93;32.14;103136.91;5366344;27;20027;-79
2022/04/16 09:05:28;;;;;;;12.65;11.40;;;;;;;28.08;30.72;103147.44;5370155;27;20108;-79
2022/04/16 09:08:03;;;;;;;11.77;10.75;;;;;;;28.39;30.98;103146.91;5373743;27;20464;-79
2022/04/16 09:10:36;;;;;;;12.18;10.98;;;;;;;28.93;30.23;103153.38;5355561;27;20027;-78
2022/04/16 09:13:07;;;;;;;11.95;10.82;;;;;;;27.71;31.34;103150.38;5354327;27;20020;-78
2022/04/16 09:15:39;;;;;;;12.98;11.65;;;;;;;26.84;31.38;103150.72;5350765;27;20126;-78
2022/04/16 09:18:11;;;;;;;12.43;11.15;;;;;;;25.62;33.91;103154.84;5364390;27;20028;-78
2022/04/16 09:20:43;;;;;;;11.60;10.50;;;;;;;27.11;33.57;103144.44;5366035;27;20015;-78
2022/04/16 09:23:20;;;;;;;12.50;11.30;;;;;;;26.90;32.41;103148.06;5349545;27;20064;-78
2022/04/16 09:25:51;;;;;;;11.73;10.55;;;;;;;25.18;34.86;103131.88;5363199;27;20604;-78
2022/04/16 09:28:22;;;;;;;10.88;9.75;;;;;;;25.04;33.44;103138.16;5369743;27;20357;-78
2022/04/16 09:30:56;;;;;;;11.07;9.98;;;;;;;23.48;35.01;103133.44;5368382;27;20050;-78
2022/04/16 09:33:37;;;;;;;10.70;9.60;;;;;;;23.49;36.38;103140.56;5369531;27;20057;-78
2022/04/16 09:36:08;;;;;;;11.02;9.82;;;;;;;23.37;35.63;103138.22;5349776;27;20357;-78
2022/04/16 09:38:42;;;;;;;9.55;8.65;;;;;;;23.06;37.13;103123.59;5350664;27;20059;-78
2022/04/16 09:41:14;;;;;;;11.43;10.27;;;;;;;23.16;35.55;103146.91;5352771;27;20434;-78
2022/04/16 09:43:46;;;;;;;10.32;9.40;;;;;;;23.63;35.03;103120.78;5358087;27;20085;-78
2022/04/16 09:46:18;;;;;;;10.40;9.23;;;;;;;22.66;36.64;103140.53;5350570;27;20040;-78
2022/04/16 09:48:51;;;;;;;12.35;10.05;;;;;;;21.68;38.81;103130.09;5352424;27;20028;-78
2022/04/16 09:51:24;;;;;;;9.50;8.50;;;;;;;23.15;38.51;103119.84;5353102;27;20023;-78
2022/04/16 09:53:56;;;;;;;9.73;7.50;;;;;;;25.97;32.73;103130.56;5366057;27;20051;-78
2022/04/16 09:56:28;;;;;;;7.50;6.80;;;;;;;26.80;30.10;103125.63;5380265;27;20111;-78
2022/04/16 09:59:02;;;;;;;12.52;7.35;;;;;;;27.89;29.76;103130.66;5351213;27;20059;-78
2022/04/16 10:01:34;;;;;;;7.20;6.47;;;;;;;28.87;27.47;103132.25;5355473;27;20023;-78
2022/04/16 10:04:08;;;;;;;8.15;7.43;;;;;;;26.80;28.86;103131.09;5361657;27;20089;-78
2022/04/16 10:06:40;;;;;;;6.35;5.75;;;;;;;24.04;30.86;103117.13;5348399;27;20106;-78
2022/04/16 10:09:14;;;;;;;6.50;5.90;;;;;;;23.82;32.76;103114.09;5361183;27;20112;-78
2022/04/16 10:15:11;;;;;;;5.72;5.20;;;;;;;27.81;28.37;103113.53;5368256;27;20031;-78
2022/04/16 10:17:52;;;;;;;8.35;5.90;;;;;;;28.81;27.09;103111.97;5353327;27;20039;-78
2022/04/16 10:20:25;;;;;;;6.40;5.07;;;;;;;28.92;26.45;103112.41;5369823;27;20464;-78
2022/04/16 10:23:05;;;;;;;6.55;5.60;;;;;;;29.96;25.67;103105.25;5369445;27;20448;-78
2022/04/16 10:25:41;;;;;;;7.00;6.00;;;;;;;30.70;25.73;103123.06;5369700;27;20015;-78
2022/04/16 10:28:23;;;;;;;5.95;5.40;;;;;;;33.35;22.68;103116.31;5367946;27;20483;-79
2022/04/16 10:30:55;;;;;;;5.05;4.55;;;;;;;33.01;20.83;103108.81;5368134;27;20102;-78
2022/04/16 10:33:27;;;;;;;4.85;3.63;;;;;;;31.05;20.90;103121.72;5369324;27;20027;-78
2022/04/16 10:36:00;;;;;;;4.00;3.60;;;;;;;30.11;22.68;103119.56;5358376;27;20050;-78
2022/04/16 10:38:37;;;;;;;4.90;4.43;;;;;;;30.65;22.92;103125.63;5348146;27;20020;-78
2022/04/16 10:41:19;;;;;;;5.30;4.60;;;;;;;31.68;22.50;103109.66;5346037;27;20027;-79
2022/04/16 10:43:54;;;;;;;4.47;4.03;;;;;;;29.65;22.92;103116.97;5347819;27;20384;-78
2022/04/16 10:46:46;;;;;;;7.50;4.00;;;;;;;30.35;23.70;103114.41;5360430;27;20079;-78
2022/04/16 10:49:19;;;;;;;4.78;4.28;;;;;;;29.90;23.34;103120.72;5366732;27;20129;-78
2022/04/16 10:51:52;;;;;;;4.40;3.90;;;;;;;31.40;21.31;103118.41;5369324;27;20026;-79
2022/04/16 10:54:28;;;;;;;4.45;3.63;;;;;;;31.94;22.10;103115.91;5361984;27;20068;-79
2022/04/16 10:57:00;;;;;;;5.43;3.53;;;;;;;31.25;21.09;103108.59;5363927;27;20486;-78
2022/04/16 10:59:39;;;;;;;3.47;3.17;;;;;;;32.01;21.17;103113.91;5367173;27;20039;-78
2022/04/16 11:02:21;;;;;;;4.70;3.70;;;;;;;32.16;20.83;103103.31;5369073;27;20534;-78
2022/04/16 11:05:06;;;;;;;3.28;3.00;;;;;;;33.21;19.96;103106.56;5365272;27;20501;-79
2022/04/16 11:07:40;;;;;;;3.63;3.33;;;;;;;33.07;19.62;103105.94;5363328;27;20371;-78
2022/04/16 11:10:13;;;;;;;3.60;3.30;;;;;;;32.95;19.47;103100.41;5347216;27;20067;-79
2022/04/16 11:12:47;;;;;;;3.80;3.50;;;;;;;32.95;19.98;103105.94;5354501;27;20055;-79
2022/04/16 11:15:23;;;;;;;3.78;3.40;;;;;;;33.53;19.48;103103.41;5346945;27;20034;-79
2022/04/16 11:17:59;;;;;;;6.97;3.50;;;;;;;35.12;18.37;103103.59;5348167;27;20038;-79
2022/04/16 11:20:31;;;;;;;3.85;3.55;;;;;;;33.38;18.85;103103.06;5351273;27;20023;-80
2022/04/16 11:23:10;;;;;;;3.90;3.20;;;;;;;33.91;19.31;103090.94;5353032;27;20050;-80
2022/04/16 11:34:15;;;;;;;5.60;4.20;;;;;;;32.74;20.19;103089.94;5350636;27;20663;-80
2022/04/16 11:36:50;;;;;;;7.13;4.47;;;;;;;32.89;19.97;103079.28;5358233;27;20042;-79
2022/04/16 11:39:32;;;;;;;5.28;3.67;;;;;;;33.52;19.45;103074.06;5344687;27;20042;-80
2022/04/16 11:42:10;;;;;;;4.00;3.65;;;;;;;33.66;19.17;103099.50;5351163;27;20149;-79
2022/04/16 11:44:45;;;;;;;5.43;3.95;;;;;;;32.78;19.40;103075.44;5354783;27;20497;-78
2022/04/16 11:47:21;;;;;;;4.43;3.60;;;;;;;33.05;19.70;103077.72;5352656;27;20031;-79
2022/04/16 11:50:01;;;;;;;4.60;4.10;;;;;;;33.11;20.02;103084.19;5352904;27;20035;-79
2022/04/16 11:52:34;;;;;;;4.38;3.67;;;;;;;33.16;19.56;103082.41;5343503;27;20499;-79
2022/04/16 11:55:17;;;;;;;4.00;3.70;;;;;;;33.83;18.82;103067.25;5344750;27;20019;-79
2022/04/16 11:57:52;;;;;;;4.85;4.00;;;;;;;33.45;18.83;103068.69;5349549;27;20480;-79
2022/04/16 12:00:24;;;;;;;5.00;4.60;;;;;;;32.43;19.10;103083.59;5347997;27;20110;-79
2022/04/16 12:02:56;;;;;;;5.00;4.43;;;;;;;33.18;19.20;103062.81;5351809;27;20110;-79